createdAt,value
2022-08-17T00:01:51.522Z,17.05
2022-08-17T00:04:20.002Z,17.08
2022-08-17T00:06:49.054Z,17.04
2022-08-17T00:09:18.780Z,17.11
2022-08-17T00:12:41.620Z,17.14
2022-08-17T00:14:33.264Z,17.07
2022-08-17T00:16:59.878Z,16.97
2022-08-17T00:19:26.663Z,16.95
2022-08-17T00:21:56.400Z,17.04
2022-08-17T00:24:41.425Z,17.01
2022-08-17T00:27:07.892Z,16.99
2022-08-17T00:29:34.512Z,16.83
2022-08-17T00:32:01.528Z,16.85
2022-08-17T00:34:48.470Z,16.65
2022-08-17T00:37:14.890Z,16.69
2022-08-17T00:39:41.511Z,16.79
2022-08-17T00:42:15.195Z,16.81
2022-08-17T00:44:41.507Z,16.80
2022-08-17T00:47:08.101Z,16.78
2022-08-17T00:49:34.649Z,16.65
2022-08-17T00:52:03.739Z,16.57
2022-08-17T00:54:41.820Z,16.63
2022-08-17T00:57:13.883Z,16.68
2022-08-17T00:59:43.838Z,16.66
2022-08-17T01:02:12.478Z,16.65
2022-08-17T01:04:39.055Z,16.60
2022-08-17T01:07:05.899Z,16.55
2022-08-17T01:09:33.293Z,16.48
2022-08-17T01:11:59.987Z,16.46
2022-08-17T01:14:27.000Z,16.46
2022-08-17T01:16:55.036Z,16.46
2022-08-17T01:19:23.722Z,16.46
2022-08-17T01:21:58.594Z,16.44
2022-08-17T01:24:26.876Z,16.39
2022-08-17T01:26:53.447Z,16.37
2022-08-17T01:29:24.356Z,16.44
2022-08-17T01:31:53.867Z,16.42
2022-08-17T01:34:20.424Z,16.44
2022-08-17T01:36:48.095Z,16.42
2022-08-17T01:39:21.139Z,16.40
2022-08-17T01:41:48.619Z,16.30
2022-08-17T01:44:16.035Z,16.31
2022-08-17T01:46:42.464Z,16.24
2022-08-17T01:49:10.292Z,16.15
2022-08-17T01:51:37.235Z,16.09
2022-08-17T01:54:10.478Z,16.09
2022-08-17T01:56:38.885Z,16.03
2022-08-17T01:59:05.599Z,16.11
2022-08-17T02:01:34.083Z,16.15
2022-08-17T02:04:01.781Z,16.11
2022-08-17T02:06:52.770Z,16.09
2022-08-17T02:09:19.075Z,16.07
2022-08-17T02:11:49.906Z,16.05
2022-08-17T02:14:16.861Z,16.09
2022-08-17T02:16:43.985Z,16.07
2022-08-17T02:19:14.984Z,16.04
2022-08-17T02:21:43.102Z,16.02
2022-08-17T02:24:11.833Z,16.02
2022-08-17T02:26:38.220Z,16.00
2022-08-17T02:29:04.727Z,15.97
2022-08-17T02:31:31.421Z,15.97
2022-08-17T02:34:04.034Z,15.98
2022-08-17T02:36:32.054Z,16.02
2022-08-17T02:38:59.530Z,16.02
2022-08-17T02:41:26.067Z,16.05
2022-08-17T02:43:52.486Z,15.97
2022-08-17T02:46:19.199Z,15.94
2022-08-17T02:48:45.597Z,15.89
2022-08-17T02:51:12.176Z,15.92
2022-08-17T02:53:38.732Z,15.96
2022-08-17T02:56:05.262Z,16.01
2022-08-17T02:58:34.762Z,16.03
2022-08-17T03:01:03.207Z,15.93
2022-08-17T03:03:29.699Z,15.91
2022-08-17T03:05:56.369Z,15.88
2022-08-17T03:08:22.733Z,15.87
2022-08-17T03:10:49.432Z,15.87
2022-08-17T03:13:15.906Z,15.87
2022-08-17T03:15:43.849Z,15.79
2022-08-17T03:18:19.000Z,15.81
2022-08-17T03:20:51.894Z,15.77
2022-08-17T03:23:18.363Z,15.76
2022-08-17T03:25:44.772Z,15.78
2022-08-17T03:28:12.553Z,15.75
2022-08-17T03:30:39.670Z,15.70
2022-08-17T03:33:08.073Z,15.69
2022-08-17T03:35:35.293Z,15.73
2022-08-17T03:38:01.717Z,15.67
2022-08-17T03:40:39.886Z,15.67
2022-08-17T03:43:15.566Z,15.71
2022-08-17T03:45:42.775Z,15.70
2022-08-17T03:48:10.398Z,15.73
2022-08-17T03:50:36.942Z,15.72
2022-08-17T03:53:06.301Z,15.77
2022-08-17T03:55:36.424Z,15.69
2022-08-17T03:58:03.197Z,15.64
2022-08-17T04:00:29.726Z,15.64
2022-08-17T04:02:56.157Z,15.64
2022-08-17T04:05:22.534Z,15.60
2022-08-17T04:07:49.361Z,15.54
2022-08-17T04:10:15.984Z,15.56
2022-08-17T04:12:47.260Z,15.60
2022-08-17T04:15:13.977Z,15.57
2022-08-17T04:17:40.489Z,15.58
2022-08-17T04:20:07.324Z,15.58
2022-08-17T04:22:34.460Z,15.61
2022-08-17T04:25:03.213Z,15.61
2022-08-17T04:27:29.931Z,15.65
2022-08-17T04:29:56.455Z,15.60
2022-08-17T04:33:04.252Z,15.59
2022-08-17T04:35:10.245Z,15.52
2022-08-17T04:37:36.675Z,15.50
2022-08-17T04:40:04.352Z,15.53
2022-08-17T04:42:31.047Z,15.54
2022-08-17T04:44:57.558Z,15.53
2022-08-17T04:47:24.114Z,15.60
2022-08-17T04:49:50.823Z,15.64
2022-08-17T04:52:29.775Z,15.67
2022-08-17T04:55:04.742Z,15.69
2022-08-17T04:57:39.370Z,15.73
2022-08-17T05:00:08.695Z,15.80
2022-08-17T05:02:50.041Z,15.94
2022-08-17T05:05:22.809Z,16.10
2022-08-17T05:07:52.815Z,16.26
2022-08-17T05:10:19.734Z,16.36
2022-08-17T05:12:46.161Z,16.38
2022-08-17T05:15:13.219Z,16.48
2022-08-17T05:17:39.580Z,16.63
2022-08-17T05:20:06.345Z,16.73
2022-08-17T05:22:32.674Z,16.90
2022-08-17T05:24:59.088Z,16.98
2022-08-17T05:27:35.256Z,17.08
2022-08-17T05:30:03.700Z,17.26
2022-08-17T05:32:37.975Z,17.80
2022-08-17T05:35:06.928Z,18.09
2022-08-17T05:37:33.640Z,18.36
2022-08-17T05:40:00.140Z,18.47
2022-08-17T05:42:26.868Z,18.87
2022-08-17T05:44:56.581Z,18.88
2022-08-17T05:47:23.934Z,19.28
2022-08-17T05:49:51.626Z,19.07
2022-08-17T05:52:23.024Z,18.74
2022-08-17T05:54:57.234Z,18.88
2022-08-17T05:57:36.871Z,19.45
2022-08-17T06:00:08.719Z,19.73
2022-08-17T06:02:47.074Z,19.98
2022-08-17T06:05:14.083Z,19.90
2022-08-17T06:07:43.423Z,19.88
2022-08-17T06:10:17.007Z,19.36
2022-08-17T06:13:06.367Z,19.33
2022-08-17T06:15:54.359Z,19.57
2022-08-17T06:18:22.927Z,19.45
2022-08-17T06:20:51.820Z,19.52
2022-08-17T06:23:25.606Z,19.41
2022-08-17T06:25:55.508Z,19.31
2022-08-17T06:28:31.732Z,19.47
2022-08-17T06:31:02.307Z,19.80
2022-08-17T06:33:34.605Z,19.96
2022-08-17T06:36:10.251Z,19.92
2022-08-17T06:38:46.927Z,20.15
2022-08-17T06:41:25.233Z,20.24
2022-08-17T06:44:06.098Z,20.22
2022-08-17T06:46:43.888Z,20.50
2022-08-17T06:49:28.133Z,20.85
2022-08-17T06:52:01.101Z,21.07
2022-08-17T06:54:46.319Z,21.08
2022-08-17T06:57:12.687Z,20.93
2022-08-17T06:59:56.397Z,21.09
2022-08-17T07:02:52.811Z,21.06
2022-08-17T07:05:21.544Z,21.32
2022-08-17T07:07:52.641Z,21.36
2022-08-17T07:10:19.709Z,21.05
2022-08-17T07:12:47.553Z,20.84
2022-08-17T07:15:16.330Z,21.01
2022-08-17T07:17:47.474Z,20.96
2022-08-17T07:20:20.076Z,21.19
2022-08-17T07:23:00.076Z,21.32
2022-08-17T07:25:27.778Z,21.80
2022-08-17T07:27:56.158Z,21.75
2022-08-17T07:30:24.659Z,21.84
2022-08-17T07:32:51.035Z,22.41
2022-08-17T07:35:20.883Z,22.20
2022-08-17T07:38:07.693Z,22.39
2022-08-17T07:40:55.152Z,22.60
2022-08-17T07:43:22.365Z,23.14
2022-08-17T07:46:05.398Z,23.09
2022-08-17T07:48:35.612Z,22.80
2022-08-17T07:51:02.023Z,22.43
2022-08-17T07:53:28.887Z,22.46
2022-08-17T07:55:55.180Z,22.46
2022-08-17T07:58:22.699Z,22.77
2022-08-17T08:01:12.885Z,22.47
2022-08-17T08:03:42.421Z,22.52
2022-08-17T08:06:18.606Z,22.62
2022-08-17T08:08:50.002Z,22.34
2022-08-17T08:11:28.747Z,22.45
2022-08-17T08:13:55.399Z,22.39
2022-08-17T08:16:28.640Z,22.19
2022-08-17T08:18:58.006Z,22.51
2022-08-17T08:21:32.255Z,22.71
2022-08-17T08:24:17.364Z,22.92
2022-08-17T08:26:47.221Z,23.20
2022-08-17T08:29:13.980Z,23.58
2022-08-17T08:31:52.320Z,23.67
2022-08-17T08:35:00.514Z,23.90
2022-08-17T08:37:32.722Z,24.27
2022-08-17T08:40:19.873Z,24.33
2022-08-17T08:42:53.144Z,25.08
2022-08-17T08:45:32.751Z,25.95
2022-08-17T08:48:22.905Z,25.91
2022-08-17T08:51:05.233Z,25.78
2022-08-17T08:53:49.915Z,25.06
2022-08-17T08:56:22.903Z,24.62
2022-08-17T08:58:56.028Z,24.45
2022-08-17T09:01:22.471Z,24.23
2022-08-17T09:03:53.060Z,24.35
2022-08-17T09:06:37.829Z,24.28
2022-08-17T09:09:15.627Z,24.00
2022-08-17T09:12:02.220Z,23.98
2022-08-17T09:14:45.073Z,23.84
2022-08-17T09:17:22.680Z,23.80
2022-08-17T09:19:59.928Z,23.76
2022-08-17T09:22:26.736Z,23.88
2022-08-17T09:24:56.735Z,23.96
2022-08-17T09:27:48.252Z,24.12
2022-08-17T09:30:14.817Z,24.05
2022-08-17T09:32:42.967Z,24.09
2022-08-17T09:35:36.683Z,24.19
2022-08-17T09:38:06.940Z,24.24
2022-08-17T09:40:45.107Z,24.24
2022-08-17T09:43:26.165Z,24.30
2022-08-17T09:45:56.153Z,24.36
2022-08-17T09:48:28.411Z,24.47
2022-08-17T09:51:04.850Z,24.17
2022-08-17T09:53:33.370Z,24.35
2022-08-17T09:56:18.539Z,24.18
2022-08-17T09:59:03.809Z,24.27
2022-08-17T10:01:36.845Z,24.52
2022-08-17T10:04:17.749Z,24.53
2022-08-17T10:06:57.835Z,24.59
2022-08-17T10:09:50.446Z,24.75
2022-08-17T10:12:35.733Z,24.78
2022-08-17T10:15:16.032Z,24.78
2022-08-17T10:17:43.846Z,24.71
2022-08-17T10:20:17.294Z,24.76
2022-08-17T10:22:53.069Z,24.66
2022-08-17T10:25:24.845Z,23.98
2022-08-17T10:28:01.768Z,23.80
2022-08-17T10:30:31.941Z,23.81
2022-08-17T10:33:01.149Z,23.71
2022-08-17T10:35:34.578Z,23.54
2022-08-17T10:38:00.919Z,23.27
2022-08-17T10:40:46.589Z,23.10
2022-08-17T10:43:31.930Z,23.31
2022-08-17T10:46:17.105Z,23.32
2022-08-17T10:49:07.933Z,23.11
2022-08-17T10:51:39.336Z,22.99
2022-08-17T10:54:06.739Z,23.03
2022-08-17T10:56:47.495Z,23.19
2022-08-17T10:59:33.960Z,23.39
2022-08-17T11:02:18.133Z,23.57
2022-08-17T11:04:47.769Z,23.77
2022-08-17T11:07:30.774Z,23.90
2022-08-17T11:10:13.710Z,24.07
2022-08-17T11:12:40.238Z,24.62
2022-08-17T11:15:12.009Z,25.29
2022-08-17T11:17:48.852Z,25.31
2022-08-17T11:20:34.068Z,25.76
2022-08-17T11:23:14.797Z,26.24
2022-08-17T11:25:50.926Z,25.89
2022-08-17T11:28:26.195Z,25.85
2022-08-17T11:30:54.946Z,25.88
2022-08-17T11:33:30.412Z,25.58
2022-08-17T11:36:13.432Z,25.37
2022-08-17T11:38:51.159Z,25.23
2022-08-17T11:41:29.958Z,25.00
2022-08-17T11:44:02.858Z,25.00
2022-08-17T11:46:39.684Z,24.94
2022-08-17T11:49:12.027Z,24.96
2022-08-17T11:51:57.413Z,25.01
2022-08-17T11:54:34.676Z,24.95
2022-08-17T11:57:21.280Z,25.08
2022-08-17T11:59:47.881Z,24.84
2022-08-17T12:02:20.566Z,24.71
2022-08-17T12:05:12.078Z,24.85
2022-08-17T12:07:50.437Z,25.01
2022-08-17T12:10:19.089Z,25.12
2022-08-17T12:12:46.235Z,25.41
2022-08-17T12:15:18.948Z,25.71
2022-08-17T12:17:53.449Z,26.16
2022-08-17T12:20:28.461Z,26.70
2022-08-17T12:22:54.974Z,26.44
2022-08-17T12:25:25.576Z,26.63
2022-08-17T12:28:04.789Z,26.62
2022-08-17T12:30:32.344Z,27.28
2022-08-17T12:32:58.916Z,26.88
2022-08-17T12:35:32.544Z,27.36
2022-08-17T12:37:59.479Z,27.56
2022-08-17T12:40:27.834Z,27.93
2022-08-17T12:42:58.664Z,27.80
2022-08-17T12:45:26.697Z,28.48
2022-08-17T12:48:00.171Z,28.34
2022-08-17T12:50:28.207Z,28.05
2022-08-17T12:53:01.136Z,28.65
2022-08-17T12:55:32.610Z,28.22
2022-08-17T12:58:01.779Z,28.46
2022-08-17T13:00:28.707Z,27.98
2022-08-17T13:03:01.168Z,28.03
2022-08-17T13:05:30.816Z,28.52
2022-08-17T13:07:59.193Z,28.80
2022-08-17T13:10:32.553Z,28.95
2022-08-17T13:13:00.566Z,28.59
2022-08-17T13:15:33.439Z,27.99
2022-08-17T13:18:05.798Z,28.28
2022-08-17T13:20:34.333Z,28.45
2022-08-17T13:23:09.986Z,28.23
2022-08-17T13:25:38.443Z,28.38
2022-08-17T13:28:07.650Z,28.65
2022-08-17T13:30:34.471Z,28.24
2022-08-17T13:33:04.053Z,28.78
2022-08-17T13:35:39.918Z,28.73
2022-08-17T13:38:07.124Z,28.58
2022-08-17T13:40:42.918Z,29.17
2022-08-17T13:43:11.146Z,29.28
2022-08-17T13:45:46.138Z,29.20
2022-08-17T13:48:22.753Z,29.19
2022-08-17T13:51:03.700Z,28.45
2022-08-17T13:53:32.832Z,28.95
2022-08-17T13:56:02.597Z,29.20
2022-08-17T13:58:34.426Z,29.27
2022-08-17T14:01:19.726Z,29.35
2022-08-17T14:03:46.214Z,28.83
2022-08-17T14:06:51.359Z,29.16
2022-08-17T14:09:04.554Z,29.43
2022-08-17T14:11:33.059Z,29.35
2022-08-17T14:13:59.463Z,28.43
2022-08-17T14:16:25.901Z,28.66
2022-08-17T14:18:57.029Z,28.57
2022-08-17T14:21:23.993Z,28.80
2022-08-17T14:23:54.423Z,29.33
2022-08-17T14:26:21.730Z,28.94
2022-08-17T14:28:56.439Z,28.77
2022-08-17T14:31:23.544Z,29.07
2022-08-17T14:33:49.965Z,28.78
2022-08-17T14:36:16.444Z,29.14
2022-08-17T14:38:42.912Z,29.65
2022-08-17T14:41:09.230Z,29.97
2022-08-17T14:43:35.928Z,29.75
2022-08-17T14:46:02.313Z,29.58
2022-08-17T14:48:28.853Z,29.57
2022-08-17T14:50:55.565Z,29.27
2022-08-17T14:53:22.189Z,29.29
2022-08-17T14:55:50.184Z,29.14
2022-08-17T14:58:16.885Z,28.97
2022-08-17T15:00:43.321Z,29.20
2022-08-17T15:03:09.830Z,29.21
2022-08-17T15:05:37.633Z,29.17
2022-08-17T15:08:04.679Z,29.29
2022-08-17T15:10:31.359Z,29.61
2022-08-17T15:12:58.364Z,29.84
2022-08-17T15:15:24.861Z,29.89
2022-08-17T15:17:51.339Z,29.62
2022-08-17T15:20:20.578Z,29.02
2022-08-17T15:22:47.887Z,28.99
2022-08-17T15:25:14.894Z,29.37
2022-08-17T15:27:41.721Z,29.10
2022-08-17T15:30:08.823Z,29.46
2022-08-17T15:32:37.372Z,29.58
2022-08-17T15:35:04.656Z,29.52
2022-08-17T15:37:31.162Z,29.77
2022-08-17T15:39:58.129Z,29.83
2022-08-17T15:42:24.680Z,29.46
2022-08-17T15:44:51.111Z,29.71
2022-08-17T15:47:17.428Z,29.56
2022-08-17T15:49:44.512Z,29.17
2022-08-17T15:52:25.311Z,29.30
2022-08-17T15:54:53.346Z,28.93
2022-08-17T15:57:19.884Z,28.92
2022-08-17T15:59:47.475Z,28.76
2022-08-17T16:03:45.399Z,28.82
2022-08-17T16:05:11.038Z,28.62
2022-08-17T16:07:39.999Z,28.55
2022-08-17T16:10:07.144Z,28.53
2022-08-17T16:12:33.947Z,28.65
2022-08-17T16:15:00.953Z,28.50
2022-08-17T16:17:39.206Z,28.42
2022-08-17T16:20:07.749Z,28.40
2022-08-17T16:22:35.812Z,28.41
2022-08-17T16:25:04.298Z,28.36
2022-08-17T16:27:30.789Z,28.21
2022-08-17T16:29:57.411Z,28.25
2022-08-17T16:32:31.545Z,28.21
2022-08-17T16:35:07.585Z,28.14
2022-08-17T16:37:34.343Z,28.16
2022-08-17T16:40:01.603Z,28.12
2022-08-17T16:42:29.506Z,28.21
2022-08-17T16:44:57.161Z,28.24
2022-08-17T16:47:23.990Z,28.27
2022-08-17T16:49:50.385Z,28.34
2022-08-17T16:52:32.398Z,28.30
2022-08-17T16:54:59.728Z,28.24
2022-08-17T16:57:26.216Z,28.07
2022-08-17T16:59:53.208Z,28.01
2022-08-17T17:02:28.863Z,27.80
2022-08-17T17:05:00.962Z,27.66
2022-08-17T17:07:30.365Z,27.53
2022-08-17T17:09:56.776Z,27.42
2022-08-17T17:12:32.290Z,27.22
2022-08-17T17:15:11.115Z,27.10
2022-08-17T17:17:38.517Z,26.98
2022-08-17T17:20:24.534Z,26.92
2022-08-17T17:23:06.140Z,26.85
2022-08-17T17:25:37.289Z,26.82
2022-08-17T17:28:09.439Z,26.77
2022-08-17T17:30:44.724Z,26.72
2022-08-17T17:33:15.029Z,26.63
2022-08-17T17:35:47.834Z,26.51
2022-08-17T17:38:34.712Z,26.38
2022-08-17T17:41:02.955Z,26.32
2022-08-17T17:43:40.067Z,26.19
2022-08-17T17:46:27.052Z,26.13
2022-08-17T17:48:55.673Z,25.99
2022-08-17T17:52:06.806Z,25.90
2022-08-17T17:54:18.076Z,25.79
2022-08-17T17:56:53.725Z,25.75
2022-08-17T17:59:33.032Z,25.68
2022-08-17T18:02:06.982Z,25.60
2022-08-17T18:04:40.478Z,25.54
2022-08-17T18:07:16.099Z,25.49
2022-08-17T18:10:01.831Z,25.43
2022-08-17T18:12:52.554Z,25.37
2022-08-17T18:15:22.810Z,25.31
2022-08-17T18:18:07.847Z,25.23
2022-08-17T18:20:43.575Z,25.23
2022-08-17T18:23:23.138Z,25.18
2022-08-17T18:25:54.638Z,25.08
2022-08-17T18:28:33.270Z,24.96
2022-08-17T18:31:04.754Z,24.85
2022-08-17T18:33:31.309Z,24.79
2022-08-17T18:35:58.472Z,24.72
2022-08-17T18:38:30.771Z,24.63
2022-08-17T18:41:05.496Z,24.49
2022-08-17T18:43:44.240Z,24.39
2022-08-17T18:46:32.726Z,24.30
2022-08-17T18:49:00.947Z,24.19
2022-08-17T18:51:41.560Z,24.11
2022-08-17T18:54:09.739Z,24.03
2022-08-17T18:56:37.295Z,23.97
2022-08-17T18:59:06.213Z,23.92
2022-08-17T19:01:53.622Z,23.88
2022-08-17T19:04:34.111Z,23.84
2022-08-17T19:07:02.828Z,23.80
2022-08-17T19:09:34.432Z,23.79
2022-08-17T19:12:03.960Z,23.80
2022-08-17T19:14:31.101Z,23.76
2022-08-17T19:17:01.868Z,23.72
2022-08-17T19:19:38.460Z,23.67
2022-08-17T19:22:28.457Z,23.59
2022-08-17T19:25:03.736Z,23.52
2022-08-17T19:27:50.713Z,23.47
2022-08-17T19:30:24.090Z,23.45
2022-08-17T19:32:50.663Z,23.35
2022-08-17T19:35:18.342Z,23.25
2022-08-17T19:37:45.140Z,23.20
2022-08-17T19:40:11.725Z,23.15
2022-08-17T19:43:15.993Z,23.09
2022-08-17T19:45:42.509Z,22.98
2022-08-17T19:48:11.906Z,22.91
2022-08-17T19:50:43.894Z,22.84
2022-08-17T19:53:13.721Z,22.79
2022-08-17T19:55:58.814Z,22.78
2022-08-17T19:58:40.294Z,22.70
2022-08-17T20:01:12.051Z,22.68
2022-08-17T20:03:45.548Z,22.66
2022-08-17T20:06:13.733Z,22.63
2022-08-17T20:08:54.883Z,22.59
2022-08-17T20:11:23.775Z,22.54
2022-08-17T20:14:02.732Z,22.48
2022-08-17T20:16:30.805Z,22.43
2022-08-17T20:19:03.042Z,22.39
2022-08-17T20:21:33.041Z,22.36
2022-08-17T20:24:05.340Z,22.29
2022-08-17T20:26:35.852Z,22.12
2022-08-17T20:29:11.481Z,22.01
2022-08-17T20:31:53.105Z,21.95
2022-08-17T20:34:25.603Z,21.92
2022-08-17T20:37:15.327Z,21.82
2022-08-17T20:39:42.286Z,21.71
2022-08-17T20:42:08.822Z,21.45
2022-08-17T20:44:37.132Z,21.20
2022-08-17T20:47:09.931Z,21.20
2022-08-17T20:49:48.297Z,21.17
2022-08-17T20:52:34.706Z,21.26
2022-08-17T20:55:01.979Z,21.19
2022-08-17T20:57:31.017Z,21.26
2022-08-17T20:59:59.209Z,21.32
2022-08-17T21:02:26.596Z,21.34
2022-08-17T21:04:53.009Z,21.41
2022-08-17T21:07:54.385Z,21.47
2022-08-17T21:10:23.678Z,21.52
2022-08-17T21:12:52.877Z,21.55
2022-08-17T21:15:21.992Z,21.57
2022-08-17T21:17:50.224Z,21.59
2022-08-17T21:20:32.270Z,21.59
2022-08-17T21:22:59.237Z,21.61
2022-08-17T21:25:43.224Z,21.62
2022-08-17T21:28:34.112Z,21.63
2022-08-17T21:31:01.832Z,21.57
2022-08-17T21:33:32.360Z,21.38
2022-08-17T21:36:04.550Z,21.23
2022-08-17T21:38:35.765Z,21.09
2022-08-17T21:41:02.302Z,21.07
2022-08-17T21:43:30.071Z,21.04
2022-08-17T21:45:59.787Z,21.10
2022-08-17T21:48:27.432Z,21.15
2022-08-17T21:50:56.886Z,21.19
2022-08-17T21:53:46.625Z,21.23
2022-08-17T21:56:19.763Z,21.28
2022-08-17T21:58:48.541Z,21.36
2022-08-17T22:01:44.349Z,21.38
2022-08-17T22:04:24.668Z,21.42
2022-08-17T22:06:52.261Z,21.40
2022-08-17T22:09:31.711Z,21.38
2022-08-17T22:11:58.409Z,21.35
2022-08-17T22:14:27.715Z,21.27
2022-08-17T22:17:14.143Z,21.16
2022-08-17T22:19:40.754Z,21.02
2022-08-17T22:22:09.066Z,21.03
2022-08-17T22:24:36.195Z,20.89
2022-08-17T22:27:02.648Z,20.83
2022-08-17T22:29:47.873Z,20.64
2022-08-17T22:32:32.941Z,20.65
2022-08-17T22:35:17.645Z,20.52
2022-08-17T22:37:44.751Z,20.53
2022-08-17T22:40:23.314Z,20.29
2022-08-17T22:42:49.728Z,20.29
2022-08-17T22:45:16.335Z,20.39
2022-08-17T22:47:44.123Z,20.29
2022-08-17T22:50:15.213Z,20.31
2022-08-17T22:52:44.907Z,20.33
2022-08-17T22:55:16.830Z,20.11
2022-08-17T22:57:45.256Z,20.04
2022-08-17T23:00:28.277Z,19.86
2022-08-17T23:03:23.979Z,19.77
2022-08-17T23:06:07.443Z,19.81
2022-08-17T23:08:34.760Z,19.80
2022-08-17T23:11:01.867Z,19.72
2022-08-17T23:13:28.478Z,19.73
2022-08-17T23:15:54.906Z,19.59
2022-08-17T23:18:21.283Z,19.53
2022-08-17T23:20:47.793Z,19.40
2022-08-17T23:23:14.815Z,19.37
2022-08-17T23:25:41.431Z,19.21
2022-08-17T23:28:07.941Z,19.16
2022-08-17T23:30:36.752Z,19.11
2022-08-17T23:33:08.779Z,19.05
2022-08-17T23:35:39.736Z,18.98
2022-08-17T23:38:07.200Z,18.98
2022-08-17T23:40:33.571Z,18.93
2022-08-17T23:43:00.087Z,18.82
2022-08-17T23:45:31.127Z,18.68
2022-08-17T23:47:57.917Z,18.68
2022-08-17T23:50:24.808Z,18.63
2022-08-17T23:52:56.323Z,18.65
2022-08-17T23:55:23.167Z,18.66
2022-08-17T23:57:49.664Z,18.61
